createdAt,value
2017-03-04T00:00:19.205Z,997.43
2017-03-04T00:00:59.809Z,997.5
2017-03-04T00:01:40.430Z,997.49
2017-03-04T00:02:21.014Z,997.46
2017-03-04T00:03:01.637Z,997.44
2017-03-04T00:03:42.213Z,997.42
2017-03-04T00:04:22.821Z,997.43
2017-03-04T00:05:03.458Z,997.45
2017-03-04T00:05:44.073Z,997.47
2017-03-04T00:06:24.661Z,997.43
2017-03-04T00:07:05.295Z,997.44
2017-03-04T00:07:46.193Z,997.45
2017-03-04T00:08:26.831Z,997.48
2017-03-04T00:09:07.431Z,997.46
2017-03-04T00:09:48.061Z,997.5
2017-03-04T00:10:28.643Z,997.52
2017-03-04T00:11:09.232Z,997.52
2017-03-04T00:11:49.827Z,997.51
2017-03-04T00:12:30.411Z,997.53
2017-03-04T00:13:11.085Z,997.56
2017-03-04T00:13:51.651Z,997.52
2017-03-04T00:14:32.279Z,997.5
2017-03-04T00:15:12.884Z,997.53
2017-03-04T00:15:53.489Z,997.48
2017-03-04T00:16:34.121Z,997.51
2017-03-04T00:17:14.719Z,997.5
2017-03-04T00:17:55.315Z,997.51
2017-03-04T00:18:35.933Z,997.49
2017-03-04T00:19:16.608Z,997.5
2017-03-04T00:19:57.242Z,997.49
2017-03-04T00:20:37.842Z,997.47
2017-03-04T00:21:18.452Z,997.45
2017-03-04T00:21:59.069Z,997.47
2017-03-04T00:22:39.659Z,997.52
2017-03-04T00:23:20.287Z,997.47
2017-03-04T00:24:00.877Z,997.47
2017-03-04T00:24:41.454Z,997.47
2017-03-04T00:25:22.048Z,997.45
2017-03-04T00:26:02.689Z,997.5
2017-03-04T00:26:43.283Z,997.5
2017-03-04T00:27:23.918Z,997.48
2017-03-04T00:28:04.539Z,997.5
2017-03-04T00:28:46.874Z,997.49
2017-03-04T00:29:32.371Z,997.48
2017-03-04T00:30:13.029Z,997.44
2017-03-04T00:30:53.598Z,997.43
2017-03-04T00:31:34.212Z,997.43
2017-03-04T00:32:14.795Z,997.37
2017-03-04T00:32:55.410Z,997.41
2017-03-04T00:33:36.025Z,997.42
2017-03-04T00:34:16.643Z,997.43
2017-03-04T00:34:57.255Z,997.39
2017-03-04T00:35:37.848Z,997.43
2017-03-04T00:36:18.439Z,997.43
2017-03-04T00:36:59.040Z,997.45
2017-03-04T00:37:39.636Z,997.41
2017-03-04T00:38:20.252Z,997.47
2017-03-04T00:39:00.851Z,997.49
2017-03-04T00:39:41.440Z,997.5
2017-03-04T00:40:22.067Z,997.53
2017-03-04T00:41:02.669Z,997.5
2017-03-04T00:41:43.283Z,997.51
2017-03-04T00:42:23.873Z,997.5
2017-03-04T00:43:04.462Z,997.46
2017-03-04T00:43:45.091Z,997.48
2017-03-04T00:44:25.715Z,997.54
2017-03-04T00:45:06.320Z,997.51
2017-03-04T00:45:46.939Z,997.53
2017-03-04T00:46:27.550Z,997.51
2017-03-04T00:47:08.178Z,997.47
2017-03-04T00:47:48.783Z,997.49
2017-03-04T00:48:29.373Z,997.51
2017-03-04T00:49:09.986Z,997.45
2017-03-04T00:49:50.583Z,997.46
2017-03-04T00:50:31.209Z,997.44
2017-03-04T00:53:14.419Z,997.45
2017-03-04T00:53:55.016Z,997.43
2017-03-04T00:54:35.604Z,997.48
2017-03-04T00:55:16.200Z,997.47
2017-03-04T00:55:56.776Z,997.48
2017-03-04T00:56:37.379Z,997.47
2017-03-04T00:57:17.970Z,997.45
2017-03-04T00:57:58.585Z,997.41
2017-03-04T00:58:39.170Z,997.42
2017-03-04T00:59:19.784Z,997.44
2017-03-04T01:00:00.391Z,997.38
2017-03-04T01:00:40.997Z,997.38
2017-03-04T01:01:21.576Z,997.36
2017-03-04T01:02:02.164Z,997.38
2017-03-04T01:02:42.759Z,997.33
2017-03-04T01:03:23.336Z,997.33
2017-03-04T01:04:03.941Z,997.32
2017-03-04T01:04:44.594Z,997.32
2017-03-04T01:05:25.195Z,997.34
2017-03-04T01:06:05.795Z,997.28
2017-03-04T01:06:46.364Z,997.29
2017-03-04T01:07:27.002Z,997.29
2017-03-04T01:08:07.629Z,997.27
2017-03-04T01:08:48.212Z,997.28
2017-03-04T01:09:28.921Z,997.27
2017-03-04T01:10:09.476Z,997.3
2017-03-04T01:10:50.091Z,997.33
2017-03-04T01:11:30.719Z,997.3
2017-03-04T01:12:11.312Z,997.3
2017-03-04T01:12:51.901Z,997.27
2017-03-04T01:13:32.601Z,997.26
2017-03-04T01:14:13.180Z,997.26
2017-03-04T01:14:53.796Z,997.25
2017-03-04T01:15:34.398Z,997.28
2017-03-04T01:16:15.017Z,997.25
2017-03-04T01:16:55.636Z,997.22
2017-03-04T01:17:36.215Z,997.27
2017-03-04T01:18:16.809Z,997.18
2017-03-04T01:18:57.407Z,997.2
2017-03-04T01:19:38.080Z,997.14
2017-03-04T01:20:18.681Z,997.12
2017-03-04T01:20:59.311Z,997.1
2017-03-04T01:21:40.102Z,997.12
2017-03-04T01:22:20.707Z,997.1
2017-03-04T01:23:01.331Z,997.08
2017-03-04T01:23:42.019Z,997.07
2017-03-04T01:24:22.604Z,997.02
2017-03-04T01:25:03.220Z,997.02
2017-03-04T01:25:43.899Z,997
2017-03-04T01:26:24.497Z,996.96
2017-03-04T01:27:05.153Z,996.96
2017-03-04T01:27:45.772Z,996.93
2017-03-04T01:28:26.395Z,996.95
2017-03-04T01:29:07.015Z,996.95
2017-03-04T01:29:47.610Z,996.9
2017-03-04T01:30:28.237Z,996.88
2017-03-04T01:31:08.862Z,996.93
2017-03-04T01:31:49.474Z,996.93
2017-03-04T01:32:30.085Z,996.91
2017-03-04T01:33:10.760Z,996.91
2017-03-04T01:33:51.384Z,996.93
2017-03-04T01:34:32.016Z,996.91
2017-03-04T01:35:12.601Z,996.91
2017-03-04T01:35:53.184Z,996.87
2017-03-04T01:36:33.854Z,996.9
2017-03-04T01:37:14.443Z,996.88
2017-03-04T01:37:55.075Z,996.89
2017-03-04T01:38:35.683Z,996.9
2017-03-04T01:39:16.319Z,996.91
2017-03-04T01:39:56.906Z,996.89
2017-03-04T01:40:37.559Z,996.87
2017-03-04T01:41:18.183Z,996.9
2017-03-04T01:41:58.802Z,996.87
2017-03-04T01:42:39.435Z,996.81
2017-03-04T01:43:20.087Z,996.84
2017-03-04T01:44:00.657Z,996.86
2017-03-04T01:44:41.292Z,996.81
2017-03-04T01:45:21.911Z,996.83
2017-03-04T01:46:02.517Z,996.78
2017-03-04T01:46:43.134Z,996.76
2017-03-04T01:47:24.474Z,996.71
2017-03-04T01:48:05.128Z,996.71
2017-03-04T01:48:45.748Z,996.65
2017-03-04T01:49:26.381Z,996.66
2017-03-04T01:50:07.021Z,996.66
2017-03-04T01:50:47.625Z,996.66
2017-03-04T01:51:28.285Z,996.66
2017-03-04T01:52:08.910Z,996.7
2017-03-04T01:52:49.509Z,996.69
2017-03-04T01:53:30.148Z,996.68
2017-03-04T01:54:10.750Z,996.68
2017-03-04T01:54:51.374Z,996.64
2017-03-04T01:55:32.025Z,996.66
2017-03-04T01:56:12.628Z,996.65
2017-03-04T01:56:53.282Z,996.68
2017-03-04T01:57:33.909Z,996.64
2017-03-04T01:58:14.528Z,996.66
2017-03-04T01:58:55.125Z,996.67
2017-03-04T01:59:35.791Z,996.66
2017-03-04T02:00:16.417Z,996.67
2017-03-04T02:00:57.045Z,996.68
2017-03-04T02:01:37.664Z,996.69
2017-03-04T02:02:18.277Z,996.65
2017-03-04T02:02:58.895Z,996.58
2017-03-04T02:03:39.561Z,996.56
2017-03-04T02:04:20.200Z,996.55
2017-03-04T02:05:00.827Z,996.51
2017-03-04T02:05:41.449Z,996.53
2017-03-04T02:06:22.099Z,996.49
2017-03-04T02:07:02.711Z,996.45
2017-03-04T02:07:43.302Z,996.44
2017-03-04T02:08:23.931Z,996.49
2017-03-04T02:09:04.567Z,996.44
2017-03-04T02:09:45.150Z,996.44
2017-03-04T02:10:25.789Z,996.45
2017-03-04T02:11:06.423Z,996.46
2017-03-04T02:11:47.041Z,996.45
2017-03-04T02:12:27.653Z,996.45
2017-03-04T02:13:08.355Z,996.45
2017-03-04T02:13:48.957Z,996.45
2017-03-04T02:14:29.581Z,996.46
2017-03-04T02:15:10.184Z,996.47
2017-03-04T02:15:50.796Z,996.47
2017-03-04T02:16:31.414Z,996.48
2017-03-04T02:17:12.012Z,996.49
2017-03-04T02:17:52.673Z,996.43
2017-03-04T02:18:33.319Z,996.42
2017-03-04T02:19:13.954Z,996.46
2017-03-04T02:19:54.549Z,996.44
2017-03-04T02:20:35.155Z,996.48
2017-03-04T02:21:15.781Z,996.44
2017-03-04T02:21:56.379Z,996.5
2017-03-04T02:22:37.012Z,996.47
2017-03-04T02:23:17.688Z,996.5
2017-03-04T02:23:58.315Z,996.5
2017-03-04T02:24:38.880Z,996.5
2017-03-04T02:25:19.525Z,996.52
2017-03-04T02:26:00.108Z,996.52
2017-03-04T02:26:40.746Z,996.54
2017-03-04T02:27:21.391Z,996.49
2017-03-04T02:28:02.036Z,996.49
2017-03-04T02:28:42.704Z,996.47
2017-03-04T02:29:23.336Z,996.44
2017-03-04T02:30:03.948Z,996.45
2017-03-04T02:30:44.564Z,996.43
2017-03-04T02:31:25.199Z,996.38
2017-03-04T02:32:05.780Z,996.42
2017-03-04T02:32:46.412Z,996.4
2017-03-04T02:33:27.046Z,996.43
2017-03-04T02:34:07.693Z,996.39
2017-03-04T02:34:48.348Z,996.42
2017-03-04T02:35:28.949Z,996.41
2017-03-04T02:36:09.552Z,996.38
2017-03-04T02:36:50.163Z,996.39
2017-03-04T02:37:30.765Z,996.36
2017-03-04T02:38:11.357Z,996.36
2017-03-04T02:38:51.984Z,996.36
2017-03-04T02:39:32.634Z,996.33
2017-03-04T02:40:13.242Z,996.34
2017-03-04T02:40:53.838Z,996.32
2017-03-04T02:41:34.495Z,996.36
2017-03-04T02:42:15.363Z,996.36
2017-03-04T02:42:55.954Z,996.34
2017-03-04T02:43:36.584Z,996.36
2017-03-04T02:44:17.166Z,996.35
2017-03-04T02:44:57.800Z,996.35
2017-03-04T02:45:38.388Z,996.35
2017-03-04T02:46:19.021Z,996.35
2017-03-04T02:46:59.645Z,996.32
2017-03-04T02:47:40.250Z,996.31
2017-03-04T02:48:20.884Z,996.28
2017-03-04T02:49:01.491Z,996.27
2017-03-04T02:49:42.122Z,996.3
2017-03-04T02:50:22.686Z,996.31
2017-03-04T02:51:03.320Z,996.23
2017-03-04T02:51:43.916Z,996.28
2017-03-04T02:52:24.517Z,996.24
2017-03-04T02:53:05.126Z,996.22
2017-03-04T02:53:45.729Z,996.24
2017-03-04T02:54:26.336Z,996.19
2017-03-04T02:55:06.931Z,996.27
2017-03-04T02:55:47.533Z,996.21
2017-03-04T02:56:28.131Z,996.23
2017-03-04T02:57:08.742Z,996.22
2017-03-04T02:57:49.341Z,996.22
2017-03-04T02:58:29.940Z,996.14
2017-03-04T02:59:10.535Z,996.14
2017-03-04T02:59:51.123Z,996.14
2017-03-04T03:00:31.694Z,996.12
2017-03-04T03:01:12.286Z,996.12
2017-03-04T03:01:52.935Z,996.07
2017-03-04T03:02:33.549Z,996.07
2017-03-04T03:03:14.114Z,996.08
2017-03-04T03:03:54.696Z,996.05
2017-03-04T03:04:35.316Z,996
2017-03-04T03:05:15.907Z,996.01
2017-03-04T03:05:56.492Z,995.97
2017-03-04T03:06:37.095Z,995.98
2017-03-04T03:07:17.743Z,995.97
2017-03-04T03:07:58.345Z,995.94
2017-03-04T03:08:38.962Z,995.94
2017-03-04T03:09:19.623Z,995.97
2017-03-04T03:10:00.227Z,995.98
2017-03-04T03:10:40.837Z,995.98
2017-03-04T03:11:21.406Z,995.92
2017-03-04T03:12:02.011Z,995.89
2017-03-04T03:12:42.584Z,995.9
2017-03-04T03:13:23.166Z,995.87
2017-03-04T03:14:03.759Z,995.93
2017-03-04T03:14:44.366Z,995.85
2017-03-04T03:15:24.995Z,995.85
2017-03-04T03:16:05.552Z,995.89
2017-03-04T03:16:46.173Z,995.85
2017-03-04T03:17:26.772Z,995.88
2017-03-04T03:18:07.388Z,995.81
2017-03-04T03:18:47.956Z,995.83
2017-03-04T03:19:28.540Z,995.83
2017-03-04T03:20:09.139Z,995.81
2017-03-04T03:20:49.764Z,995.86
2017-03-04T03:21:30.341Z,995.84
2017-03-04T03:22:10.931Z,995.82
2017-03-04T03:22:51.496Z,995.83
2017-03-04T03:23:32.101Z,995.84
2017-03-04T03:24:12.767Z,995.84
2017-03-04T03:24:53.374Z,995.85
2017-03-04T03:25:34.001Z,995.86
2017-03-04T03:26:14.616Z,995.81
2017-03-04T03:26:55.223Z,995.81
2017-03-04T03:27:35.820Z,995.86
2017-03-04T03:28:16.409Z,995.84
2017-03-04T03:28:57.010Z,995.84
2017-03-04T03:29:37.639Z,995.85
2017-03-04T03:30:18.241Z,995.83
2017-03-04T03:30:58.827Z,995.82
2017-03-04T03:31:39.451Z,995.86
2017-03-04T03:32:20.030Z,995.81
2017-03-04T03:33:00.643Z,995.81
2017-03-04T03:33:41.237Z,995.81
2017-03-04T03:34:21.837Z,995.81
2017-03-04T03:35:02.430Z,995.78
2017-03-04T03:35:43.037Z,995.79
2017-03-04T03:36:23.648Z,995.73
2017-03-04T03:37:04.238Z,995.77
2017-03-04T03:37:44.844Z,995.75
2017-03-04T03:38:25.460Z,995.76
2017-03-04T03:39:06.073Z,995.71
2017-03-04T03:39:46.651Z,995.68
2017-03-04T03:40:27.236Z,995.7
2017-03-04T03:41:07.824Z,995.69
2017-03-04T03:41:48.417Z,995.69
2017-03-04T03:42:29.019Z,995.68
2017-03-04T03:43:09.623Z,995.63
2017-03-04T03:43:50.230Z,995.69
2017-03-04T03:44:30.839Z,995.66
2017-03-04T03:45:11.434Z,995.67
2017-03-04T03:45:52.031Z,995.67
2017-03-04T03:46:32.622Z,995.7
2017-03-04T03:47:13.215Z,995.7
2017-03-04T03:47:53.826Z,995.69
2017-03-04T03:48:34.426Z,995.66
2017-03-04T03:49:15.015Z,995.68
2017-03-04T03:49:55.612Z,995.71
2017-03-04T03:50:36.205Z,995.74
2017-03-04T03:51:16.790Z,995.69
2017-03-04T03:51:57.394Z,995.69
2017-03-04T03:52:38.022Z,995.68
2017-03-04T03:53:18.639Z,995.69
2017-03-04T03:53:59.246Z,995.65
2017-03-04T03:54:39.902Z,995.68
2017-03-04T03:55:20.494Z,995.68
2017-03-04T03:56:01.075Z,995.6
2017-03-04T03:56:41.693Z,995.63
2017-03-04T03:57:22.301Z,995.64
2017-03-04T03:58:02.866Z,995.58
2017-03-04T03:58:43.495Z,995.62
2017-03-04T03:59:24.106Z,995.6
2017-03-04T04:00:04.703Z,995.65
2017-03-04T04:00:45.271Z,995.62
2017-03-04T04:01:25.860Z,995.63
2017-03-04T04:02:06.446Z,995.61
2017-03-04T04:02:47.059Z,995.64
2017-03-04T04:03:27.641Z,995.62
2017-03-04T04:04:08.246Z,995.57
2017-03-04T04:04:48.854Z,995.65
2017-03-04T04:05:29.444Z,995.57
2017-03-04T04:06:10.024Z,995.58
2017-03-04T04:06:50.640Z,995.56
2017-03-04T04:07:31.214Z,995.57
2017-03-04T04:08:11.799Z,995.56
2017-03-04T04:08:52.400Z,995.58
2017-03-04T04:09:33.025Z,995.58
2017-03-04T04:10:13.598Z,995.57
2017-03-04T04:10:54.249Z,995.54
2017-03-04T04:11:34.830Z,995.53
2017-03-04T04:12:15.441Z,995.55
2017-03-04T04:12:56.045Z,995.52
2017-03-04T04:13:36.673Z,995.47
2017-03-04T04:14:17.294Z,995.45
2017-03-04T04:14:57.889Z,995.47
2017-03-04T04:15:38.476Z,995.44
2017-03-04T04:16:19.067Z,995.43
2017-03-04T04:16:59.645Z,995.47
2017-03-04T04:17:40.238Z,995.39
2017-03-04T04:18:20.847Z,995.42
2017-03-04T04:19:01.460Z,995.45
2017-03-04T04:19:42.071Z,995.42
2017-03-04T04:20:22.729Z,995.45
2017-03-04T04:21:03.310Z,995.47
2017-03-04T04:21:43.907Z,995.44
2017-03-04T04:22:24.541Z,995.46
2017-03-04T04:23:05.114Z,995.5
2017-03-04T04:23:45.740Z,995.51
2017-03-04T04:24:26.329Z,995.46
2017-03-04T04:25:06.934Z,995.48
2017-03-04T04:25:47.551Z,995.48
2017-03-04T04:26:28.153Z,995.48
2017-03-04T04:27:08.757Z,995.43
2017-03-04T04:27:49.376Z,995.44
2017-03-04T04:28:30.016Z,995.43
2017-03-04T04:29:10.588Z,995.41
2017-03-04T04:29:51.173Z,995.39
2017-03-04T04:30:31.806Z,995.4
2017-03-04T04:31:12.414Z,995.36
2017-03-04T04:31:53.042Z,995.35
2017-03-04T04:32:33.642Z,995.4
2017-03-04T04:33:14.229Z,995.4
2017-03-04T04:33:54.846Z,995.37
2017-03-04T04:34:35.445Z,995.36
2017-03-04T04:35:16.090Z,995.38
2017-03-04T04:35:56.700Z,995.34
2017-03-04T04:36:37.310Z,995.35
2017-03-04T04:37:17.942Z,995.32
2017-03-04T04:37:58.549Z,995.32
2017-03-04T04:38:39.160Z,995.35
2017-03-04T04:39:19.734Z,995.31
2017-03-04T04:40:00.356Z,995.3
2017-03-04T04:40:40.932Z,995.3
2017-03-04T04:41:21.544Z,995.3
2017-03-04T04:42:02.144Z,995.26
2017-03-04T04:42:42.755Z,995.31
2017-03-04T04:43:23.347Z,995.27
2017-03-04T04:44:03.949Z,995.31
2017-03-04T04:44:44.563Z,995.3
2017-03-04T04:45:25.152Z,995.3
2017-03-04T04:46:05.766Z,995.32
2017-03-04T04:46:46.379Z,995.31
2017-03-04T04:47:26.981Z,995.3
2017-03-04T04:48:07.585Z,995.26
2017-03-04T04:48:48.174Z,995.3
2017-03-04T04:49:28.759Z,995.28
2017-03-04T04:50:09.364Z,995.29
2017-03-04T04:50:49.929Z,995.31
2017-03-04T04:51:30.527Z,995.31
2017-03-04T04:52:11.159Z,995.25
2017-03-04T04:52:51.792Z,995.27
2017-03-04T04:53:32.377Z,995.29
2017-03-04T04:54:12.980Z,995.28
2017-03-04T04:54:53.575Z,995.25
2017-03-04T04:55:34.186Z,995.27
2017-03-04T04:56:14.849Z,995.23
2017-03-04T04:56:55.443Z,995.24
2017-03-04T04:57:36.017Z,995.2
2017-03-04T04:58:16.594Z,995.18
2017-03-04T04:58:57.201Z,995.18
2017-03-04T04:59:37.815Z,995.2
2017-03-04T05:00:18.397Z,995.18
2017-03-04T05:00:58.993Z,995.21
2017-03-04T05:01:39.576Z,995.15
2017-03-04T05:02:20.185Z,995.18
2017-03-04T05:03:00.813Z,995.16
2017-03-04T05:03:41.407Z,995.21
2017-03-04T05:04:22.017Z,995.16
2017-03-04T05:05:02.624Z,995.16
2017-03-04T05:05:43.215Z,995.14
2017-03-04T05:06:23.803Z,995.16
2017-03-04T05:07:04.415Z,995.13
2017-03-04T05:07:45.003Z,995.13
2017-03-04T05:08:25.628Z,995.12
2017-03-04T05:09:06.215Z,995.12
2017-03-04T05:09:46.842Z,995.11
2017-03-04T05:10:27.465Z,995.11
2017-03-04T05:11:08.071Z,995.12
2017-03-04T05:11:48.720Z,995.13
2017-03-04T05:12:29.381Z,995.09
2017-03-04T05:13:09.934Z,995.09
2017-03-04T05:13:50.543Z,995.09
2017-03-04T05:14:31.112Z,995.12
2017-03-04T05:15:11.682Z,995.05
2017-03-04T05:15:52.283Z,995.05
2017-03-04T05:16:32.868Z,995.06
2017-03-04T05:17:13.483Z,995.04
2017-03-04T05:17:54.098Z,995.03
2017-03-04T05:18:34.704Z,995.04
2017-03-04T05:19:15.277Z,995.05
2017-03-04T05:19:55.870Z,995.03
2017-03-04T05:20:36.443Z,995.08
2017-03-04T05:21:17.111Z,995.08
2017-03-04T05:21:57.754Z,995.08
2017-03-04T05:22:38.412Z,995.07
2017-03-04T05:23:19.026Z,995.07
2017-03-04T05:23:59.612Z,995.03
2017-03-04T05:24:40.211Z,995.04
2017-03-04T05:25:20.808Z,995.08
2017-03-04T05:26:01.434Z,995.05
2017-03-04T05:26:42.028Z,995.04
2017-03-04T05:27:22.620Z,995.06
2017-03-04T05:28:03.224Z,995.03
2017-03-04T05:28:43.825Z,995.03
2017-03-04T05:29:24.456Z,995.04
2017-03-04T05:30:05.041Z,995.03
2017-03-04T05:30:45.678Z,995.01
2017-03-04T05:31:26.277Z,995.03
2017-03-04T05:32:06.864Z,995.05
2017-03-04T05:32:47.430Z,995.03
2017-03-04T05:33:28.066Z,995.03
2017-03-04T05:34:08.660Z,995
2017-03-04T05:34:49.248Z,995.02
2017-03-04T05:35:29.862Z,994.98
2017-03-04T05:36:10.455Z,995.04
2017-03-04T05:36:51.123Z,995.03
2017-03-04T05:37:31.694Z,994.99
2017-03-04T05:38:12.307Z,995
2017-03-04T05:38:52.970Z,995.01
2017-03-04T05:39:33.600Z,994.98
2017-03-04T05:40:14.201Z,995
2017-03-04T05:40:54.812Z,994.95
2017-03-04T05:41:35.407Z,994.94
2017-03-04T05:42:16.020Z,994.95
2017-03-04T05:42:56.689Z,994.96
2017-03-04T05:43:37.277Z,994.9
2017-03-04T05:44:17.881Z,994.88
2017-03-04T05:44:58.485Z,994.89
2017-03-04T05:45:39.073Z,994.94
2017-03-04T05:46:19.664Z,994.84
2017-03-04T05:47:00.313Z,994.89
2017-03-04T05:47:40.912Z,994.88
2017-03-04T05:48:21.499Z,994.88
2017-03-04T05:49:02.084Z,994.88
2017-03-04T05:49:42.683Z,994.91
2017-03-04T05:50:23.259Z,994.9
2017-03-04T05:51:03.870Z,994.86
2017-03-04T05:51:44.465Z,994.84
2017-03-04T05:52:25.052Z,994.88
2017-03-04T05:53:05.636Z,994.82
2017-03-04T05:53:46.242Z,994.82
2017-03-04T05:54:26.849Z,994.86
2017-03-04T05:55:07.455Z,994.88
2017-03-04T05:55:48.177Z,994.89
2017-03-04T05:56:28.791Z,994.89
2017-03-04T05:57:09.400Z,994.89
2017-03-04T05:57:50.032Z,994.86
2017-03-04T05:58:30.685Z,994.9
2017-03-04T05:59:11.244Z,994.86
2017-03-04T05:59:51.831Z,994.88
2017-03-04T06:00:32.547Z,994.87
2017-03-04T06:01:13.136Z,994.87
2017-03-04T06:01:53.708Z,994.91
2017-03-04T06:02:34.325Z,994.91
2017-03-04T06:03:14.911Z,994.84
2017-03-04T06:03:55.505Z,994.83
2017-03-04T06:04:36.091Z,994.85
2017-03-04T06:05:16.705Z,994.87
2017-03-04T06:05:57.263Z,994.8
2017-03-04T06:06:37.881Z,994.8
2017-03-04T06:07:18.528Z,994.8
2017-03-04T06:07:59.155Z,994.77
2017-03-04T06:08:39.756Z,994.8
2017-03-04T06:09:20.331Z,994.78
2017-03-04T06:10:00.929Z,994.78
2017-03-04T06:10:41.549Z,994.83
2017-03-04T06:11:22.146Z,994.84
2017-03-04T06:12:02.727Z,994.82
2017-03-04T06:12:43.336Z,994.88
2017-03-04T06:13:23.953Z,994.81
2017-03-04T06:14:04.541Z,994.85
2017-03-04T06:14:45.140Z,994.89
2017-03-04T06:15:25.752Z,994.89
2017-03-04T06:16:06.364Z,994.86
2017-03-04T06:16:46.952Z,994.89
2017-03-04T06:17:27.566Z,994.9
2017-03-04T06:18:08.151Z,994.9
2017-03-04T06:18:48.766Z,994.9
2017-03-04T06:19:29.353Z,994.91
2017-03-04T06:20:09.956Z,994.89
2017-03-04T06:20:50.570Z,994.88
2017-03-04T06:21:31.180Z,994.88
2017-03-04T06:22:11.759Z,994.85
2017-03-04T06:22:52.364Z,994.87
2017-03-04T06:23:32.981Z,994.86
2017-03-04T06:24:13.684Z,994.84
2017-03-04T06:24:54.175Z,994.84
2017-03-04T06:25:34.800Z,994.83
2017-03-04T06:26:15.388Z,994.79
2017-03-04T06:26:55.993Z,994.78
2017-03-04T06:27:36.585Z,994.79
2017-03-04T06:28:17.196Z,994.75
2017-03-04T06:28:57.789Z,994.76
2017-03-04T06:29:38.367Z,994.74
2017-03-04T06:30:18.996Z,994.71
2017-03-04T06:30:59.599Z,994.69
2017-03-04T06:31:40.213Z,994.74
2017-03-04T06:32:20.845Z,994.76
2017-03-04T06:33:01.454Z,994.73
2017-03-04T06:33:42.089Z,994.74
2017-03-04T06:34:22.694Z,994.72
2017-03-04T06:35:03.333Z,994.68
2017-03-04T06:35:43.942Z,994.77
2017-03-04T06:36:24.554Z,994.68
2017-03-04T06:37:05.179Z,994.71
2017-03-04T06:37:45.787Z,994.67
2017-03-04T06:38:26.550Z,994.66
2017-03-04T06:39:07.141Z,994.67
2017-03-04T06:39:47.829Z,994.67
2017-03-04T06:40:28.588Z,994.65
2017-03-04T06:41:09.191Z,994.66
2017-03-04T06:41:50.520Z,994.57
2017-03-04T06:42:31.165Z,994.67
2017-03-04T06:43:11.821Z,994.66
2017-03-04T06:43:52.471Z,994.66
2017-03-04T06:44:33.114Z,994.67
2017-03-04T06:45:13.757Z,994.7
2017-03-04T06:45:54.382Z,994.72
2017-03-04T06:46:34.978Z,994.7
2017-03-04T06:47:15.635Z,994.71
2017-03-04T06:47:56.241Z,994.77
2017-03-04T06:48:36.855Z,994.79
2017-03-04T06:49:17.522Z,994.77
2017-03-04T06:49:58.141Z,994.78
2017-03-04T06:50:38.811Z,994.75
2017-03-04T06:51:19.493Z,994.76
2017-03-04T06:52:00.095Z,994.76
2017-03-04T06:52:40.725Z,994.75
2017-03-04T06:53:21.305Z,994.78
2017-03-04T06:54:01.917Z,994.72
2017-03-04T06:54:42.502Z,994.74
2017-03-04T06:55:23.100Z,994.73
2017-03-04T06:56:03.718Z,994.71
2017-03-04T06:56:44.339Z,994.7
2017-03-04T06:57:25.021Z,994.74
2017-03-04T06:58:05.666Z,994.76
2017-03-04T06:58:46.278Z,994.73
2017-03-04T06:59:26.908Z,994.74
2017-03-04T07:00:07.531Z,994.72
2017-03-04T07:00:48.173Z,994.76
2017-03-04T07:01:28.805Z,994.76
2017-03-04T07:02:09.389Z,994.75
2017-03-04T07:02:50.052Z,994.74
2017-03-04T07:03:30.619Z,994.74
2017-03-04T07:04:11.212Z,994.77
2017-03-04T07:04:51.901Z,994.71
2017-03-04T07:05:32.508Z,994.72
2017-03-04T07:06:13.126Z,994.75
2017-03-04T07:06:53.770Z,994.69
2017-03-04T07:07:34.407Z,994.66
2017-03-04T07:08:15.051Z,994.62
2017-03-04T07:08:55.709Z,994.67
2017-03-04T07:09:36.359Z,994.66
2017-03-04T07:10:17.049Z,994.62
2017-03-04T07:10:57.648Z,994.65
2017-03-04T07:11:38.289Z,994.65
2017-03-04T07:12:18.908Z,994.63
2017-03-04T07:12:59.527Z,994.65
2017-03-04T07:13:40.160Z,994.64
2017-03-04T07:14:20.780Z,994.65
2017-03-04T07:15:01.445Z,994.68
2017-03-04T07:15:42.055Z,994.68
2017-03-04T07:16:22.936Z,994.67
2017-03-04T07:17:03.908Z,994.69
2017-03-04T07:17:44.700Z,994.66
2017-03-04T07:18:25.314Z,994.65
2017-03-04T07:19:05.981Z,994.68
2017-03-04T07:19:46.587Z,994.66
2017-03-04T07:20:27.224Z,994.66
2017-03-04T07:21:07.872Z,994.65
2017-03-04T07:21:48.399Z,994.61
2017-03-04T07:22:28.985Z,994.65
2017-03-04T07:23:09.577Z,994.65
2017-03-04T07:23:50.186Z,994.6
2017-03-04T07:24:30.773Z,994.64
2017-03-04T07:25:11.388Z,994.63
2017-03-04T07:25:52.003Z,994.6
2017-03-04T07:26:32.593Z,994.63
2017-03-04T07:27:14.626Z,994.66
2017-03-04T07:27:57.379Z,994.63
2017-03-04T07:28:40.983Z,994.66
2017-03-04T07:29:22.816Z,994.64
2017-03-04T07:30:03.446Z,994.68
2017-03-04T07:30:44.041Z,994.63
2017-03-04T07:31:24.981Z,994.61
2017-03-04T07:32:06.038Z,994.57
2017-03-04T07:32:46.630Z,994.59
2017-03-04T07:33:27.366Z,994.61
2017-03-04T07:34:08.116Z,994.63
2017-03-04T07:34:48.851Z,994.66
2017-03-04T07:35:29.452Z,994.61
2017-03-04T07:36:10.067Z,994.66
2017-03-04T07:36:50.688Z,994.62
2017-03-04T07:37:31.303Z,994.61
2017-03-04T07:38:11.902Z,994.64
2017-03-04T07:38:52.511Z,994.67
2017-03-04T07:39:33.101Z,994.68
2017-03-04T07:40:13.788Z,994.67
2017-03-04T07:40:54.481Z,994.66
2017-03-04T07:41:35.073Z,994.66
2017-03-04T07:42:15.706Z,994.65
2017-03-04T07:42:56.329Z,994.66
2017-03-04T07:43:37.006Z,994.65
2017-03-04T07:44:17.572Z,994.66
2017-03-04T07:44:58.203Z,994.68
2017-03-04T07:45:38.848Z,994.67
2017-03-04T07:46:19.476Z,994.65
2017-03-04T07:47:00.050Z,994.67
2017-03-04T07:47:40.830Z,994.62
2017-03-04T07:48:21.435Z,994.6
2017-03-04T07:49:02.026Z,994.6
2017-03-04T07:49:42.630Z,994.59
2017-03-04T07:50:23.210Z,994.56
2017-03-04T07:51:03.882Z,994.58
2017-03-04T07:51:44.454Z,994.63
2017-03-04T07:52:25.099Z,994.63
2017-03-04T07:53:05.727Z,994.62
2017-03-04T07:53:46.317Z,994.6
2017-03-04T07:54:26.898Z,994.59
2017-03-04T07:55:07.511Z,994.61
2017-03-04T07:55:48.114Z,994.6
2017-03-04T07:56:28.738Z,994.6
2017-03-04T07:57:09.324Z,994.58
2017-03-04T07:57:50.009Z,994.63
2017-03-04T07:58:30.630Z,994.67
2017-03-04T07:59:11.255Z,994.64
2017-03-04T07:59:51.848Z,994.62
2017-03-04T08:00:32.433Z,994.74
2017-03-04T08:01:13.035Z,994.68
2017-03-04T08:01:53.632Z,994.68
2017-03-04T08:02:34.223Z,994.65
2017-03-04T08:03:14.883Z,994.62
2017-03-04T08:03:55.514Z,994.6
2017-03-04T08:04:36.105Z,994.64
2017-03-04T08:05:16.694Z,994.61
2017-03-04T08:05:57.295Z,994.59
2017-03-04T08:06:37.885Z,994.53
2017-03-04T08:07:18.501Z,994.54
2017-03-04T08:07:59.096Z,994.52
2017-03-04T08:08:39.714Z,994.52
2017-03-04T08:09:20.311Z,994.48
2017-03-04T08:10:00.898Z,994.5
2017-03-04T08:10:41.493Z,994.5
2017-03-04T08:11:22.115Z,994.5
2017-03-04T08:12:02.764Z,994.52
2017-03-04T08:12:43.416Z,994.5
2017-03-04T08:13:24.013Z,994.51
2017-03-04T08:14:04.771Z,994.49
2017-03-04T08:14:45.293Z,994.48
2017-03-04T08:15:25.871Z,994.46
2017-03-04T08:16:06.477Z,994.51
2017-03-04T08:16:47.075Z,994.46
2017-03-04T08:17:27.675Z,994.47
2017-03-04T08:18:08.276Z,994.47
2017-03-04T08:18:48.882Z,994.52
2017-03-04T08:19:29.488Z,994.51
2017-03-04T08:20:10.124Z,994.48
2017-03-04T08:20:50.716Z,994.48
2017-03-04T08:21:31.333Z,994.51
2017-03-04T08:22:11.950Z,994.51
2017-03-04T08:22:52.550Z,994.51
2017-03-04T08:23:33.154Z,994.51
2017-03-04T08:24:13.792Z,994.53
2017-03-04T08:24:54.368Z,994.49
2017-03-04T08:25:34.977Z,994.49
2017-03-04T08:26:15.651Z,994.51
2017-03-04T08:26:56.248Z,994.48
2017-03-04T08:27:36.855Z,994.49
2017-03-04T08:28:17.515Z,994.5
2017-03-04T08:28:58.211Z,994.53
2017-03-04T08:29:38.859Z,994.52
2017-03-04T08:30:19.473Z,994.48
2017-03-04T08:31:00.166Z,994.52